Time;durP1;ratioP1;P1;durP2;ratioP2;P2;SDS_P1;SDS_P2;PMS_P1;PMS_P2;Temp;Humidity;BMP_temperature;BMP_pressure;BME280_temperature;BME280_humidity;BME280_pressure;Samples;Min_cycle;Max_cycle;Signal;HPM_P1;HPM_P2
2023/10/19 00:01:17;;;;;;;7.37;5.13;;;13.50;93.90;;;;;;10519770;28;20879;-65
2023/10/19 00:06:18;;;;;;;6.60;4.80;;;13.30;93.80;;;;;;10539511;28;20402;-65
2023/10/19 00:11:22;;;;;;;6.93;4.90;;;13.30;93.90;;;;;;10540506;28;20524;-66
2023/10/19 00:16:23;;;;;;;6.50;4.67;;;13.30;93.90;;;;;;10529990;28;20445;-65
2023/10/19 00:21:27;;;;;;;8.27;5.30;;;13.30;93.90;;;;;;10530268;28;21059;-66
2023/10/19 00:26:30;;;;;;;7.37;5.30;;;13.30;93.90;;;;;;10544910;28;20697;-66
2023/10/19 00:31:34;;;;;;;6.40;4.73;;;13.30;93.90;;;;;;10542921;28;20502;-66
2023/10/19 00:36:38;;;;;;;8.80;5.50;;;13.30;93.90;;;;;;10532210;28;20946;-65
2023/10/19 00:41:40;;;;;;;7.55;5.18;;;13.30;94.00;;;;;;10542959;28;20481;-66
2023/10/19 00:51:55;;;;;;;8.65;5.90;;;13.30;94.00;;;;;;10542577;28;20412;-65
2023/10/19 00:56:58;;;;;;;7.80;5.20;;;13.30;94.00;;;;;;10546406;28;20414;-66
2023/10/19 01:02:19;;;;;;;8.77;5.70;;;13.30;94.00;;;;;;10542559;28;20781;-66
2023/10/19 01:07:23;;;;;;;8.07;5.28;;;13.30;94.00;;;;;;10543865;28;20415;-65
2023/10/19 01:17:40;;;;;;;7.60;5.60;;;13.20;94.10;;;;;;10530943;28;20475;-66
2023/10/19 01:28:16;;;;;;;8.63;5.57;;;13.30;94.20;;;;;;10534562;28;20461;-66
2023/10/19 01:33:18;;;;;;;8.10;5.40;;;13.20;94.20;;;;;;10530395;28;20377;-66
2023/10/19 01:38:22;;;;;;;7.50;5.30;;;13.20;94.30;;;;;;10522627;28;20423;-66
2023/10/19 01:43:25;;;;;;;7.20;5.50;;;13.70;94.40;;;;;;10542621;28;20384;-66
2023/10/19 01:48:35;;;;;;;8.07;5.43;;;13.30;94.30;;;;;;10522988;28;21074;-66
2023/10/19 01:53:43;;;;;;;7.28;4.93;;;13.20;94.30;;;;;;10530689;28;20480;-66
2023/10/19 01:58:46;;;;;;;7.97;5.03;;;13.20;94.30;;;;;;10533931;28;20447;-67
2023/10/19 02:03:54;;;;;;;7.03;4.97;;;13.20;94.40;;;;;;10544419;28;20419;-66
2023/10/19 02:09:00;;;;;;;6.43;4.70;;;13.20;94.40;;;;;;10533879;28;20429;-66
2023/10/19 02:14:04;;;;;;;6.53;4.90;;;13.20;94.40;;;;;;10540423;28;21124;-67
2023/10/19 02:19:04;;;;;;;7.82;5.00;;;13.20;94.40;;;;;;10530675;28;20402;-66
2023/10/19 02:24:07;;;;;;;6.27;4.37;;;13.20;94.50;;;;;;10531728;28;20758;-66
2023/10/19 02:29:09;;;;;;;6.13;4.63;;;13.30;94.50;;;;;;10510264;28;20498;-66
2023/10/19 02:34:14;;;;;;;6.43;4.60;;;13.20;94.50;;;;;;10544500;28;20944;-66
2023/10/19 02:39:17;;;;;;;5.55;4.10;;;13.20;94.50;;;;;;10544415;28;20411;-66
2023/10/19 02:44:22;;;;;;;6.70;4.78;;;13.20;94.60;;;;;;10540969;28;20384;-66
2023/10/19 02:49:23;;;;;;;5.57;4.40;;;13.20;94.50;;;;;;10533767;28;20407;-66
2023/10/19 02:54:24;;;;;;;5.50;4.20;;;13.20;94.60;;;;;;10529848;28;20392;-66
2023/10/19 02:59:28;;;;;;;6.40;4.30;;;13.20;94.60;;;;;;10515794;28;20479;-66
2023/10/19 03:04:29;;;;;;;6.10;4.43;;;13.50;94.70;;;;;;10537863;28;20878;-65
2023/10/19 03:09:30;;;;;;;5.63;4.20;;;13.30;94.70;;;;;;10533476;28;20399;-66
2023/10/19 03:14:32;;;;;;;5.30;3.97;;;13.30;94.70;;;;;;10540622;28;20887;-66
2023/10/19 03:19:34;;;;;;;5.25;4.03;;;13.70;94.80;;;;;;10534624;28;20484;-65
2023/10/19 03:24:42;;;;;;;5.00;3.83;;;13.20;94.70;;;;;;10509762;28;20505;-65
2023/10/19 03:29:54;;;;;;;5.20;3.90;;;13.30;94.80;;;;;;10509492;28;20819;-66
2023/10/19 03:34:56;;;;;;;5.20;3.90;;;13.30;94.80;;;;;;10533298;28;20384;-66
2023/10/19 03:39:56;;;;;;;4.85;3.83;;;13.30;94.90;;;;;;10544151;28;20915;-66
2023/10/19 03:44:57;;;;;;;5.05;3.88;;;13.30;95.00;;;;;;10525836;28;20390;-66
2023/10/19 03:50:06;;;;;;;4.90;3.90;;;13.30;95.10;;;;;;10522893;28;20413;-66
2023/10/19 03:55:23;;;;;;;5.15;3.80;;;13.30;95.10;;;;;;10533112;28;20384;-65
2023/10/19 04:00:28;;;;;;;5.03;4.00;;;13.20;95.10;;;;;;10547893;28;20840;-66
2023/10/19 04:05:30;;;;;;;5.18;3.92;;;13.20;95.20;;;;;;10543785;28;20843;-66
2023/10/19 04:15:35;;;;;;;5.20;3.80;;;13.30;95.30;;;;;;10537317;28;20911;-66
2023/10/19 04:20:48;;;;;;;4.50;3.60;;;13.30;95.30;;;;;;10542994;28;20392;-66
2023/10/19 04:25:49;;;;;;;5.32;3.85;;;13.30;95.40;;;;;;10532213;28;20394;-65
2023/10/19 04:30:49;;;;;;;4.60;3.63;;;13.30;95.40;;;;;;10544317;28;20404;-66
2023/10/19 04:35:55;;;;;;;4.20;3.40;;;13.30;95.40;;;;;;10537638;28;20534;-66
2023/10/19 04:41:07;;;;;;;4.00;3.40;;;13.30;95.50;;;;;;10539913;28;20482;-66
2023/10/19 04:46:12;;;;;;;4.93;3.63;;;13.30;95.60;;;;;;10545030;28;20405;-65
2023/10/19 04:51:13;;;;;;;4.85;3.78;;;13.30;95.60;;;;;;10536257;28;20397;-65
2023/10/19 04:56:14;;;;;;;4.60;3.43;;;13.30;95.70;;;;;;10522975;28;20899;-66
2023/10/19 05:01:15;;;;;;;4.63;3.67;;;13.30;95.70;;;;;;10505353;28;20406;-66
2023/10/19 05:06:15;;;;;;;4.00;3.10;;;13.30;95.70;;;;;;10537855;28;20388;-66
2023/10/19 05:11:16;;;;;;;4.87;3.70;;;13.30;95.70;;;;;;10526849;28;20896;-66
2023/10/19 05:16:16;;;;;;;4.35;3.50;;;13.40;95.70;;;;;;10544939;28;20407;-67
2023/10/19 05:21:17;;;;;;;4.00;3.50;;;13.30;95.70;;;;;;10542843;28;20763;-66
2023/10/19 05:26:17;;;;;;;4.07;3.37;;;13.40;95.70;;;;;;10536206;28;20386;-68
2023/10/19 05:31:18;;;;;;;4.28;3.40;;;13.40;95.80;;;;;;10537974;28;20470;-67
2023/10/19 05:36:19;;;;;;;4.40;3.67;;;13.40;95.70;;;;;;10522957;28;20495;-66
2023/10/19 05:41:21;;;;;;;4.43;3.60;;;13.40;95.70;;;;;;10536872;28;20748;-68
2023/10/19 05:46:24;;;;;;;4.53;3.65;;;13.40;95.70;;;;;;10529776;28;20396;-66
2023/10/19 05:51:26;;;;;;;4.63;3.53;;;13.40;95.70;;;;;;10527256;28;20414;-66
2023/10/19 05:56:36;;;;;;;4.25;3.42;;;13.40;95.70;;;;;;10530865;28;20763;-66
2023/10/19 06:01:41;;;;;;;4.17;3.57;;;13.40;95.80;;;;;;10518389;28;20416;-65
2023/10/19 06:06:41;;;;;;;4.28;3.60;;;13.40;95.80;;;;;;10530375;28;20403;-67
2023/10/19 06:11:45;;;;;;;4.13;3.40;;;13.40;95.80;;;;;;10522116;28;20539;-66
2023/10/19 06:16:45;;;;;;;4.30;3.40;;;13.40;95.70;;;;;;10527746;28;20904;-66
2023/10/19 06:21:46;;;;;;;4.30;3.50;;;13.80;95.80;;;;;;10517256;28;20491;-67
2023/10/19 06:26:46;;;;;;;3.97;3.23;;;13.50;95.70;;;;;;10529480;28;20431;-66
2023/10/19 06:31:47;;;;;;;4.00;3.37;;;13.50;95.70;;;;;;10533347;28;20406;-65
2023/10/19 06:36:50;;;;;;;4.22;3.60;;;13.50;95.70;;;;;;10529762;28;20934;-66
2023/10/19 06:41:51;;;;;;;4.53;3.70;;;13.80;95.80;;;;;;10519443;28;20419;-66
2023/10/19 06:46:51;;;;;;;3.90;3.13;;;13.50;95.70;;;;;;10521490;28;20385;-65
2023/10/19 06:51:53;;;;;;;4.00;3.47;;;13.50;95.70;;;;;;10515473;28;20900;-66
2023/10/19 06:56:53;;;;;;;4.03;3.50;;;13.50;95.70;;;;;;10519830;28;20390;-66
2023/10/19 07:01:54;;;;;;;3.60;3.22;;;13.50;95.70;;;;;;10506203;28;20773;-65
2023/10/19 07:06:55;;;;;;;4.27;3.40;;;13.60;95.70;;;;;;10515884;28;20409;-65
2023/10/19 07:11:56;;;;;;;4.55;3.55;;;13.60;95.70;;;;;;10507043;28;20410;-65
2023/10/19 07:16:57;;;;;;;3.83;3.33;;;13.60;95.70;;;;;;10530597;28;20470;-66
2023/10/19 07:21:58;;;;;;;3.92;3.20;;;13.60;95.70;;;;;;10514608;28;20912;-66
2023/10/19 07:27:04;;;;;;;3.90;3.50;;;13.60;95.70;;;;;;10521638;28;20484;-66
2023/10/19 07:32:05;;;;;;;3.33;3.03;;;13.60;95.70;;;;;;10520832;28;20509;-66
2023/10/19 07:37:07;;;;;;;3.53;3.22;;;13.60;95.70;;;;;;10503067;28;20946;-65
2023/10/19 07:42:07;;;;;;;4.28;3.50;;;13.60;95.70;;;;;;10522489;28;20421;-66
2023/10/19 07:47:09;;;;;;;4.00;3.10;;;13.60;95.70;;;;;;10512073;28;20400;-68
2023/10/19 07:52:10;;;;;;;4.03;3.45;;;13.60;95.60;;;;;;10516693;28;20402;-66
2023/10/19 07:57:12;;;;;;;3.90;3.25;;;13.70;95.60;;;;;;10538879;28;20469;-66
2023/10/19 08:02:13;;;;;;;4.10;3.40;;;13.70;95.60;;;;;;10520138;28;20474;-65
2023/10/19 08:07:14;;;;;;;3.70;3.27;;;13.70;95.60;;;;;;10523024;28;20427;-66
2023/10/19 08:12:14;;;;;;;5.07;3.50;;;13.70;95.60;;;;;;10518937;28;20398;-65
2023/10/19 08:17:15;;;;;;;4.00;3.40;;;14.00;95.60;;;;;;10528130;28;20431;-66
2023/10/19 08:22:16;;;;;;;3.60;3.17;;;13.80;95.60;;;;;;10529608;28;20400;-66
2023/10/19 08:27:17;;;;;;;3.63;3.17;;;13.80;95.50;;;;;;10524828;28;20395;-65
2023/10/19 08:32:17;;;;;;;3.70;3.10;;;13.80;95.80;;;;;;10528566;28;20380;-66
2023/10/19 08:37:19;;;;;;;3.70;3.30;;;13.80;95.50;;;;;;10519188;28;20382;-66
2023/10/19 08:42:20;;;;;;;3.80;3.10;;;13.80;95.50;;;;;;10530971;28;20402;-66
2023/10/19 08:47:21;;;;;;;3.25;2.95;;;13.80;95.40;;;;;;10527001;28;20479;-66
2023/10/19 08:52:23;;;;;;;4.17;3.50;;;13.80;95.40;;;;;;10524396;28;20395;-66
2023/10/19 08:57:24;;;;;;;3.78;3.13;;;14.00;95.50;;;;;;10532809;28;20916;-66
2023/10/19 09:02:25;;;;;;;4.37;3.17;;;13.90;95.40;;;;;;10533310;28;20478;-65
2023/10/19 09:07:30;;;;;;;3.90;2.92;;;13.90;95.40;;;;;;10535254;28;20438;-66
2023/10/19 09:12:31;;;;;;;3.60;2.97;;;13.90;95.40;;;;;;10545500;28;20786;-67
2023/10/19 09:17:31;;;;;;;3.40;3.10;;;13.90;95.30;;;;;;10516615;28;20893;-65
2023/10/19 09:22:36;;;;;;;3.97;3.50;;;14.20;95.40;;;;;;10521717;28;20451;-66
2023/10/19 09:27:37;;;;;;;3.53;3.13;;;14.00;95.40;;;;;;10509740;28;20517;-66
2023/10/19 09:32:39;;;;;;;3.70;3.00;;;14.00;95.40;;;;;;10535306;28;20479;-66
2023/10/19 09:37:39;;;;;;;3.55;3.10;;;14.00;95.40;;;;;;10525646;28;20444;-66
2023/10/19 09:42:46;;;;;;;4.17;3.20;;;14.00;95.40;;;;;;10522473;28;20753;-66
2023/10/19 09:47:50;;;;;;;3.80;3.20;;;14.00;95.70;;;;;;10505890;28;20473;-66
2023/10/19 09:52:51;;;;;;;3.67;3.25;;;14.00;95.40;;;;;;10528300;28;20490;-65
2023/10/19 09:58:14;;;;;;;4.00;3.23;;;14.10;95.40;;;;;;10508785;28;20424;-65
2023/10/19 10:03:51;;;;;;;4.55;3.13;;;14.10;95.40;;;;;;10513270;28;20388;-65
2023/10/19 10:08:52;;;;;;;3.65;3.17;;;14.20;95.50;;;;;;10520107;28;20409;-66
2023/10/19 10:13:55;;;;;;;3.50;3.17;;;14.20;95.50;;;;;;10527593;28;20778;-66
2023/10/19 10:19:00;;;;;;;3.42;3.10;;;14.60;95.60;;;;;;10541611;28;20429;-66
2023/10/19 10:24:04;;;;;;;5.00;3.60;;;14.30;95.70;;;;;;10514970;28;20402;-65
2023/10/19 10:29:26;;;;;;;4.53;3.60;;;14.30;95.80;;;;;;10528114;28;20408;-66
2023/10/19 10:34:36;;;;;;;4.32;3.65;;;14.40;95.90;;;;;;10515534;28;20455;-64
2023/10/19 10:39:38;;;;;;;5.18;3.60;;;14.40;95.90;;;;;;10503750;28;20472;-66
2023/10/19 10:44:46;;;;;;;5.47;3.90;;;14.40;96.00;;;;;;10528043;28;20474;-65
2023/10/19 10:49:53;;;;;;;4.40;3.67;;;14.40;96.10;;;;;;10523063;28;20406;-67
2023/10/19 10:54:55;;;;;;;4.15;3.75;;;14.50;96.10;;;;;;10527397;28;20678;-66
2023/10/19 11:00:15;;;;;;;4.15;3.58;;;14.50;96.20;;;;;;10525542;28;20393;-66
2023/10/19 11:05:18;;;;;;;4.53;3.63;;;14.50;96.40;;;;;;10524134;28;20408;-67
2023/10/19 11:10:29;;;;;;;4.90;3.92;;;14.60;96.50;;;;;;10514959;28;20403;-65
2023/10/19 11:15:30;;;;;;;4.10;3.58;;;14.60;96.50;;;;;;10521297;28;20374;-66
2023/10/19 11:20:31;;;;;;;4.93;4.00;;;14.70;96.50;;;;;;10521208;28;20384;-67
2023/10/19 11:25:31;;;;;;;5.28;3.70;;;14.70;96.60;;;;;;10534645;28;20391;-66
2023/10/19 11:30:32;;;;;;;5.75;3.70;;;14.80;96.60;;;;;;10533517;28;20780;-67
2023/10/19 11:35:34;;;;;;;4.75;3.92;;;15.00;96.80;;;;;;10517808;28;20386;-67
2023/10/19 11:40:35;;;;;;;5.77;4.13;;;14.90;96.80;;;;;;10507976;28;20397;-67
2023/10/19 11:45:36;;;;;;;5.82;4.07;;;15.00;97.70;;;;;;10509794;28;20410;-68
2023/10/19 11:50:37;;;;;;;9.97;5.60;;;15.00;97.60;;;;;;10516143;28;20903;-67
2023/10/19 11:55:38;;;;;;;6.50;4.10;;;15.10;98.50;;;;;;10534086;28;20398;-65
2023/10/19 12:00:38;;;;;;;5.70;4.20;;;15.10;98.20;;;;;;10514197;28;20403;-66
2023/10/19 12:05:39;;;;;;;5.63;4.37;;;15.10;98.10;;;;;;10527750;28;20398;-65
2023/10/19 12:10:40;;;;;;;5.13;4.03;;;15.20;98.10;;;;;;10526147;28;20400;-67
2023/10/19 12:15:40;;;;;;;5.40;4.20;;;15.40;98.30;;;;;;10532281;28;20390;-66
2023/10/19 12:20:45;;;;;;;6.90;4.30;;;15.20;98.20;;;;;;10533127;28;20892;-66
2023/10/19 12:25:45;;;;;;;4.63;3.83;;;15.20;98.30;;;;;;10544271;28;20907;-66
2023/10/19 12:30:47;;;;;;;5.60;4.07;;;15.50;98.40;;;;;;10522860;28;20413;-66
2023/10/19 12:35:57;;;;;;;5.53;4.00;;;15.30;98.30;;;;;;10528628;28;20376;-66
2023/10/19 12:40:58;;;;;;;4.95;3.90;;;15.20;98.20;;;;;;10535056;28;20777;-66
2023/10/19 12:45:59;;;;;;;5.03;4.07;;;15.20;98.30;;;;;;10530894;28;20423;-66
2023/10/19 12:51:01;;;;;;;6.07;4.20;;;15.20;98.20;;;;;;10533479;28;20492;-66
2023/10/19 12:56:03;;;;;;;5.90;4.10;;;15.20;98.10;;;;;;10528975;28;20966;-66
2023/10/19 13:01:05;;;;;;;6.87;4.60;;;15.20;98.20;;;;;;10540355;28;20522;-66
2023/10/19 13:06:07;;;;;;;6.68;4.32;;;15.20;98.20;;;;;;10528541;28;20394;-66
2023/10/19 13:11:08;;;;;;;5.30;4.20;;;15.20;98.20;;;;;;10525116;28;20454;-65
2023/10/19 13:16:09;;;;;;;5.90;4.27;;;15.20;98.30;;;;;;10521063;28;20887;-66
2023/10/19 13:21:11;;;;;;;5.78;4.20;;;15.30;98.20;;;;;;10538016;28;20400;-66
2023/10/19 13:31:15;;;;;;;6.85;5.03;;;15.30;98.20;;;;;;10532442;28;20785;-66
2023/10/19 13:36:16;;;;;;;7.97;5.10;;;15.30;98.20;;;;;;10531531;28;20403;-66
2023/10/19 13:41:16;;;;;;;7.47;5.43;;;15.30;98.30;;;;;;10519822;28;20407;-66
2023/10/19 13:46:17;;;;;;;7.70;5.78;;;15.30;98.30;;;;;;10539651;28;20425;-66
2023/10/19 13:51:20;;;;;;;8.83;5.70;;;15.30;98.50;;;;;;10537678;28;20398;-67
2023/10/19 13:56:21;;;;;;;7.47;5.22;;;15.20;98.50;;;;;;10528295;28;20476;-66
2023/10/19 14:01:24;;;;;;;7.25;5.38;;;15.20;98.70;;;;;;10540049;28;20966;-66
2023/10/19 14:06:25;;;;;;;8.20;5.43;;;15.50;98.50;;;;;;10528657;28;20418;-66
2023/10/19 14:11:26;;;;;;;7.50;5.50;;;15.20;98.60;;;;;;10543042;28;20443;-66
2023/10/19 14:16:26;;;;;;;8.90;5.93;;;15.20;98.40;;;;;;10538442;28;20395;-66
2023/10/19 14:21:28;;;;;;;9.87;6.83;;;15.30;98.30;;;;;;10539358;28;20392;-66
2023/10/19 14:26:28;;;;;;;8.45;5.80;;;15.20;98.50;;;;;;10537491;28;21166;-66
2023/10/19 14:31:29;;;;;;;9.43;5.73;;;15.50;98.60;;;;;;10521857;28;20440;-65
2023/10/19 14:36:29;;;;;;;8.53;6.30;;;15.20;98.70;;;;;;10523683;28;20390;-64
2023/10/19 14:41:30;;;;;;;7.13;5.57;;;15.20;98.50;;;;;;10528899;28;20419;-65
2023/10/19 14:46:32;;;;;;;8.02;5.82;;;15.20;98.30;;;;;;10533741;28;20384;-65
2023/10/19 14:51:32;;;;;;;7.53;6.03;;;15.20;98.20;;;;;;10506328;28;20404;-65
2023/10/19 14:56:33;;;;;;;10.43;6.95;;;15.20;98.20;;;;;;10534962;28;20397;-64
2023/10/19 15:01:34;;;;;;;8.67;6.47;;;15.20;98.50;;;;;;10532321;28;20467;-65
2023/10/19 15:06:34;;;;;;;8.80;6.53;;;15.20;98.30;;;;;;10538743;28;20407;-65
2023/10/19 15:11:35;;;;;;;10.03;7.10;;;15.20;98.40;;;;;;10534033;28;20402;-64
2023/10/19 15:16:35;;;;;;;12.63;7.90;;;15.10;98.40;;;;;;10530443;28;20386;-65
2023/10/19 15:21:36;;;;;;;10.90;7.22;;;15.10;98.50;;;;;;10526106;28;20491;-65
2023/10/19 15:26:36;;;;;;;11.50;7.67;;;15.10;98.60;;;;;;10532792;28;20401;-65
2023/10/19 15:31:37;;;;;;;11.37;7.50;;;15.10;98.70;;;;;;10531137;28;20425;-65
2023/10/19 15:36:37;;;;;;;9.37;7.50;;;15.10;98.70;;;;;;10532215;28;20467;-65
2023/10/19 15:41:38;;;;;;;11.70;7.67;;;15.20;98.70;;;;;;10525699;28;20822;-66
2023/10/19 15:46:39;;;;;;;10.38;7.03;;;15.30;98.80;;;;;;10537149;28;20383;-65
2023/10/19 15:51:40;;;;;;;9.43;7.07;;;15.10;98.70;;;;;;10536661;28;20411;-64
2023/10/19 15:56:40;;;;;;;10.63;7.23;;;15.10;98.70;;;;;;10530103;28;20395;-65
2023/10/19 16:01:41;;;;;;;10.37;7.23;;;15.10;98.80;;;;;;10531629;28;20405;-65
2023/10/19 16:06:41;;;;;;;9.30;7.03;;;15.10;98.80;;;;;;10533393;28;20410;-65
2023/10/19 16:11:42;;;;;;;10.07;6.87;;;15.00;98.70;;;;;;10531246;28;20506;-65
2023/10/19 16:16:43;;;;;;;10.93;7.13;;;15.10;98.70;;;;;;10535525;28;20897;-65
2023/10/19 16:21:43;;;;;;;10.13;7.38;;;15.00;98.70;;;;;;10527148;28;20403;-66
2023/10/19 16:26:44;;;;;;;10.15;7.28;;;15.00;98.70;;;;;;10522978;28;20419;-65
2023/10/19 16:31:47;;;;;;;9.50;7.00;;;15.40;98.80;;;;;;10530412;28;21075;-65
2023/10/19 16:36:48;;;;;;;10.88;7.22;;;15.00;98.70;;;;;;10530194;28;20460;-65
2023/10/19 16:41:50;;;;;;;10.02;7.10;;;15.00;98.70;;;;;;10525196;28;20410;-65
2023/10/19 16:46:51;;;;;;;11.67;7.57;;;15.00;98.60;;;;;;10528615;28;20510;-65
2023/10/19 16:51:51;;;;;;;10.80;6.90;;;15.00;98.70;;;;;;10527711;28;20568;-65
2023/10/19 16:56:52;;;;;;;10.10;6.82;;;15.00;98.70;;;;;;10522701;28;20396;-65
2023/10/19 17:01:52;;;;;;;9.77;7.13;;;15.40;98.80;;;;;;10525841;28;20410;-65
2023/10/19 17:06:53;;;;;;;9.80;6.80;;;15.00;98.80;;;;;;10529866;28;20740;-65
2023/10/19 17:11:54;;;;;;;10.67;7.07;;;15.60;98.90;;;;;;10527730;28;20405;-65
2023/10/19 17:16:55;;;;;;;9.38;6.60;;;15.00;98.80;;;;;;10534621;28;20377;-65
2023/10/19 17:21:57;;;;;;;9.73;6.90;;;15.00;98.80;;;;;;10517219;28;20390;-65
2023/10/19 17:26:58;;;;;;;10.23;7.25;;;15.00;98.80;;;;;;10521728;28;20400;-65
2023/10/19 17:31:59;;;;;;;10.07;7.30;;;15.10;98.90;;;;;;10527210;28;20404;-65
2023/10/19 17:37:00;;;;;;;10.63;6.85;;;15.00;98.80;;;;;;10520975;28;20398;-66
2023/10/19 17:42:00;;;;;;;9.45;6.95;;;15.20;98.90;;;;;;10450225;28;2183812;-66
2023/10/19 17:47:01;;;;;;;9.13;6.57;;;14.90;98.90;;;;;;10524357;28;20440;-65
2023/10/19 17:52:02;;;;;;;10.93;7.03;;;14.90;98.90;;;;;;10527992;28;20897;-65
2023/10/19 17:57:02;;;;;;;9.50;6.97;;;15.40;99.00;;;;;;10520729;28;20401;-65
2023/10/19 18:02:04;;;;;;;9.65;7.13;;;14.90;98.90;;;;;;10532170;28;20603;-66
2023/10/19 18:07:07;;;;;;;10.80;7.07;;;14.90;98.90;;;;;;10521445;28;20924;-66
2023/10/19 18:12:07;;;;;;;9.50;6.97;;;14.90;98.90;;;;;;10525053;28;20644;-66
2023/10/19 18:17:11;;;;;;;8.87;6.30;;;14.90;98.90;;;;;;10525405;28;20400;-66
2023/10/19 18:22:11;;;;;;;10.23;7.10;;;14.90;98.90;;;;;;10494510;28;20446;-65
2023/10/19 18:27:12;;;;;;;9.17;6.93;;;14.90;98.90;;;;;;10487326;28;20499;-65
2023/10/19 18:32:12;;;;;;;10.40;6.90;;;14.60;98.80;;;;;;10521420;28;20490;-66
2023/10/19 18:37:15;;;;;;;9.70;6.90;;;14.90;98.80;;;;;;10522098;28;20400;-66
2023/10/19 18:42:16;;;;;;;9.38;6.78;;;14.90;98.80;;;;;;10520047;28;20899;-66
2023/10/19 18:47:17;;;;;;;9.97;7.17;;;14.80;98.70;;;;;;10519942;28;20388;-65
2023/10/19 18:52:18;;;;;;;9.20;6.90;;;14.90;98.70;;;;;;10523463;28;20406;-65
2023/10/19 18:57:18;;;;;;;10.40;7.20;;;14.90;98.80;;;;;;10522982;28;20402;-66
2023/10/19 19:02:19;;;;;;;8.93;6.90;;;14.90;98.70;;;;;;10508440;28;20433;-65
2023/10/19 19:07:21;;;;;;;9.50;6.80;;;14.60;98.60;;;;;;10525176;28;20535;-66
2023/10/19 19:12:22;;;;;;;9.70;7.20;;;14.80;98.70;;;;;;10531705;28;20417;-65
2023/10/19 19:17:26;;;;;;;9.23;7.00;;;14.80;98.70;;;;;;10503297;28;20403;-66
2023/10/19 19:22:29;;;;;;;10.60;7.23;;;14.80;98.70;;;;;;10511100;28;20445;-66
2023/10/19 19:27:29;;;;;;;9.75;7.25;;;14.80;98.60;;;;;;10500011;28;20405;-66
2023/10/19 19:32:30;;;;;;;10.43;7.30;;;14.80;98.70;;;;;;10488799;28;20413;-65
2023/10/19 19:37:35;;;;;;;9.83;6.90;;;14.80;98.80;;;;;;10515428;28;20877;-65
2023/10/19 19:42:36;;;;;;;10.43;7.13;;;14.70;98.70;;;;;;10506366;28;20448;-66
2023/10/19 19:47:38;;;;;;;9.73;7.28;;;14.70;98.70;;;;;;10515278;28;20397;-66
2023/10/19 19:52:39;;;;;;;9.32;6.90;;;14.70;98.70;;;;;;10502763;28;20470;-65
2023/10/19 19:57:41;;;;;;;8.75;6.75;;;14.70;98.60;;;;;;10521667;28;20924;-66
2023/10/19 20:02:46;;;;;;;9.38;6.90;;;14.70;98.70;;;;;;10510251;28;20410;-65
2023/10/19 20:07:47;;;;;;;8.93;6.85;;;14.70;98.70;;;;;;10522698;28;20880;-66
2023/10/19 20:12:48;;;;;;;8.63;6.63;;;14.70;98.60;;;;;;10520088;28;20493;-65
2023/10/19 20:17:48;;;;;;;10.13;6.70;;;14.70;98.60;;;;;;10517288;28;20377;-65
2023/10/19 20:22:51;;;;;;;9.63;6.80;;;14.70;98.60;;;;;;10517168;28;20407;-65
2023/10/19 20:27:53;;;;;;;8.93;6.57;;;14.70;98.50;;;;;;10516677;28;20397;-65
2023/10/19 20:32:55;;;;;;;9.10;6.63;;;14.70;98.50;;;;;;10494498;28;20409;-65
2023/10/19 20:37:55;;;;;;;9.40;6.65;;;14.70;98.40;;;;;;10522415;28;20743;-65
2023/10/19 20:42:59;;;;;;;9.00;6.30;;;14.70;98.40;;;;;;10507172;28;20409;-65
2023/10/19 20:48:01;;;;;;;7.70;6.00;;;14.60;98.30;;;;;;10524882;28;20382;-65
2023/10/19 20:53:03;;;;;;;8.35;6.40;;;14.60;98.30;;;;;;10501852;28;20398;-65
2023/10/19 20:58:04;;;;;;;8.23;6.07;;;14.60;98.40;;;;;;10516537;28;20395;-65
2023/10/19 21:03:04;;;;;;;8.35;6.30;;;14.60;98.40;;;;;;10505706;28;20406;-65
2023/10/19 21:08:09;;;;;;;7.28;5.63;;;14.50;98.40;;;;;;10527108;28;20917;-66
2023/10/19 21:13:10;;;;;;;7.43;5.82;;;14.50;98.40;;;;;;10528359;28;20887;-65
2023/10/19 21:18:11;;;;;;;7.93;5.80;;;14.50;98.40;;;;;;10531773;28;20425;-66
2023/10/19 21:23:12;;;;;;;8.33;5.90;;;14.50;98.40;;;;;;10525871;28;20419;-66
2023/10/19 21:28:12;;;;;;;7.45;5.45;;;14.50;98.40;;;;;;10534423;28;20435;-65
2023/10/19 21:33:13;;;;;;;7.63;5.70;;;14.50;98.40;;;;;;10519955;28;20402;-65
2023/10/19 21:38:14;;;;;;;7.57;5.57;;;14.40;98.50;;;;;;10532392;28;20878;-64
2023/10/19 21:43:15;;;;;;;6.68;5.40;;;14.40;98.40;;;;;;10528573;28;20383;-65
2023/10/19 21:48:16;;;;;;;7.43;5.50;;;14.40;98.40;;;;;;10525038;28;20764;-64
2023/10/19 21:53:16;;;;;;;8.18;5.75;;;14.40;98.50;;;;;;10518093;28;20403;-65
2023/10/19 21:58:17;;;;;;;8.43;5.93;;;14.40;98.40;;;;;;10524669;28;20568;-64
2023/10/19 22:03:17;;;;;;;7.97;5.93;;;14.40;98.40;;;;;;10532249;28;20402;-65
2023/10/19 22:08:18;;;;;;;7.95;5.75;;;14.40;98.30;;;;;;10527347;28;20440;-65
2023/10/19 22:13:20;;;;;;;8.52;6.45;;;14.40;98.30;;;;;;10528763;28;20935;-64
2023/10/19 22:18:22;;;;;;;9.77;6.57;;;14.40;98.30;;;;;;10525168;28;20395;-64
2023/10/19 22:23:22;;;;;;;8.65;6.38;;;14.40;98.30;;;;;;10530980;28;20904;-64
2023/10/19 22:28:23;;;;;;;10.40;6.90;;;14.30;98.30;;;;;;10528080;28;20413;-64
2023/10/19 22:33:24;;;;;;;10.40;6.75;;;14.30;98.20;;;;;;10528996;28;20457;-64
2023/10/19 22:38:24;;;;;;;9.88;6.38;;;14.30;98.20;;;;;;10519644;28;20948;-64
2023/10/19 22:43:25;;;;;;;10.10;6.60;;;14.30;98.20;;;;;;10532363;28;20392;-64
2023/10/19 22:48:25;;;;;;;9.27;6.40;;;14.50;98.30;;;;;;10527310;28;20402;-64
2023/10/19 22:53:27;;;;;;;10.53;6.90;;;14.30;98.30;;;;;;10524009;28;20382;-64
2023/10/19 22:58:27;;;;;;;9.27;6.90;;;14.30;98.30;;;;;;10529734;28;20921;-64
2023/10/19 23:03:28;;;;;;;10.35;7.32;;;14.20;98.30;;;;;;10525567;28;20688;-64
2023/10/19 23:08:30;;;;;;;9.33;6.70;;;14.20;98.30;;;;;;10535143;28;20418;-64
2023/10/19 23:13:34;;;;;;;11.05;6.82;;;14.20;98.30;;;;;;10542337;28;20391;-65
2023/10/19 23:18:37;;;;;;;10.85;7.00;;;14.20;98.30;;;;;;10511566;28;20388;-65
2023/10/19 23:23:38;;;;;;;9.85;6.90;;;14.20;98.30;;;;;;10512252;28;20408;-65
2023/10/19 23:28:39;;;;;;;11.05;7.10;;;14.80;98.40;;;;;;10538188;28;20774;-64
2023/10/19 23:33:39;;;;;;;11.20;7.17;;;14.20;98.20;;;;;;10530961;28;20393;-64
2023/10/19 23:38:40;;;;;;;12.07;7.65;;;14.20;98.20;;;;;;10530541;28;20418;-64
2023/10/19 23:43:40;;;;;;;12.38;7.95;;;14.10;98.10;;;;;;10520205;28;20893;-64
2023/10/19 23:48:43;;;;;;;11.07;7.60;;;14.10;98.10;;;;;;10538918;28;20437;-65
2023/10/19 23:53:45;;;;;;;12.63;7.88;;;14.10;98.10;;;;;;10537553;28;20396;-64
2023/10/19 23:58:46;;;;;;;11.93;7.75;;;14.10;98.10;;;;;;10528273;28;20594;-64
